createdAt,value
2017-02-12T00:00:02.390Z,986.69
2017-02-12T00:00:43.040Z,986.75
2017-02-12T00:01:23.676Z,986.7
2017-02-12T00:02:04.396Z,986.67
2017-02-12T00:02:45.040Z,986.59
2017-02-12T00:03:25.684Z,986.65
2017-02-12T00:04:06.338Z,986.61
2017-02-12T00:04:46.972Z,986.57
2017-02-12T00:05:27.611Z,986.59
2017-02-12T00:06:08.286Z,986.56
2017-02-12T00:06:48.948Z,986.59
2017-02-12T00:07:29.595Z,986.55
2017-02-12T00:08:10.260Z,986.5
2017-02-12T00:08:50.901Z,986.53
2017-02-12T00:09:31.561Z,986.52
2017-02-12T00:10:12.209Z,986.52
2017-02-12T00:10:52.946Z,986.48
2017-02-12T00:11:33.595Z,986.49
2017-02-12T00:12:14.237Z,986.53
2017-02-12T00:12:54.881Z,986.4
2017-02-12T00:13:35.609Z,986.46
2017-02-12T00:14:16.211Z,986.4
2017-02-12T00:14:56.903Z,986.44
2017-02-12T00:15:37.650Z,986.44
2017-02-12T00:16:18.290Z,986.43
2017-02-12T00:16:58.943Z,986.45
2017-02-12T00:17:39.666Z,986.38
2017-02-12T00:18:20.299Z,986.35
2017-02-12T00:19:01.003Z,986.35
2017-02-12T00:19:41.699Z,986.4
2017-02-12T00:20:22.409Z,986.37
2017-02-12T00:21:03.071Z,986.35
2017-02-12T00:21:43.766Z,986.35
2017-02-12T00:22:24.486Z,986.4
2017-02-12T00:23:05.134Z,986.42
2017-02-12T00:23:45.812Z,986.38
2017-02-12T00:24:26.505Z,986.38
2017-02-12T00:25:07.204Z,986.35
2017-02-12T00:25:47.862Z,986.33
2017-02-12T00:26:28.605Z,986.32
2017-02-12T00:27:09.368Z,986.35
2017-02-12T00:27:50.071Z,986.3
2017-02-12T00:28:30.664Z,986.3
2017-02-12T00:29:11.318Z,986.33
2017-02-12T00:29:52.002Z,986.32
2017-02-12T00:30:32.651Z,986.25
2017-02-12T00:31:13.351Z,986.24
2017-02-12T00:31:53.990Z,986.26
2017-02-12T00:32:34.623Z,986.23
2017-02-12T00:33:15.321Z,986.17
2017-02-12T00:33:55.979Z,986.16
2017-02-12T00:34:36.625Z,986.16
2017-02-12T00:35:17.317Z,986.16
2017-02-12T00:35:58.014Z,986.17
2017-02-12T00:36:38.651Z,986.11
2017-02-12T00:37:19.360Z,986.13
2017-02-12T00:38:00.066Z,986.15
2017-02-12T00:38:40.701Z,986.14
2017-02-12T00:39:21.340Z,986.11
2017-02-12T00:40:02.098Z,986.08
2017-02-12T00:40:42.808Z,986.07
2017-02-12T00:41:23.447Z,986.05
2017-02-12T00:42:04.126Z,986.01
2017-02-12T00:42:44.860Z,986.01
2017-02-12T00:43:25.502Z,986
2017-02-12T00:44:06.135Z,985.95
2017-02-12T00:44:46.821Z,985.94
2017-02-12T00:45:27.518Z,985.95
2017-02-12T00:46:08.209Z,985.93
2017-02-12T00:46:48.844Z,985.94
2017-02-12T00:47:29.553Z,985.91
2017-02-12T00:48:10.181Z,985.88
2017-02-12T00:48:50.909Z,985.88
2017-02-12T00:49:31.586Z,985.89
2017-02-12T00:50:12.287Z,985.89
2017-02-12T00:50:52.941Z,985.85
2017-02-12T00:51:33.709Z,985.9
2017-02-12T00:52:14.342Z,985.87
2017-02-12T00:52:54.981Z,985.82
2017-02-12T00:53:35.717Z,985.8
2017-02-12T00:54:16.390Z,985.74
2017-02-12T00:54:57.087Z,985.81
2017-02-12T00:55:37.732Z,985.79
2017-02-12T00:56:18.361Z,985.75
2017-02-12T00:56:59.054Z,985.72
2017-02-12T00:57:39.688Z,985.75
2017-02-12T00:58:20.417Z,985.69
2017-02-12T00:59:01.070Z,985.68
2017-02-12T00:59:41.702Z,985.68
2017-02-12T01:00:22.348Z,985.69
2017-02-12T01:01:03.089Z,985.7
2017-02-12T01:01:43.730Z,985.69
2017-02-12T01:02:24.449Z,985.67
2017-02-12T01:03:05.156Z,985.7
2017-02-12T01:03:45.784Z,985.66
2017-02-12T01:04:26.430Z,985.66
2017-02-12T01:05:07.150Z,985.63
2017-02-12T01:05:47.911Z,985.64
2017-02-12T01:06:28.559Z,985.66
2017-02-12T01:07:09.260Z,985.59
2017-02-12T01:07:49.971Z,985.61
2017-02-12T01:08:30.609Z,985.66
2017-02-12T01:09:11.249Z,985.57
2017-02-12T01:09:51.928Z,985.54
2017-02-12T01:10:32.566Z,985.6
2017-02-12T01:11:13.217Z,985.59
2017-02-12T01:11:53.895Z,985.58
2017-02-12T01:12:34.625Z,985.55
2017-02-12T01:13:15.386Z,985.55
2017-02-12T01:13:55.922Z,985.56
2017-02-12T01:14:36.545Z,985.5
2017-02-12T01:15:17.216Z,985.5
2017-02-12T01:15:57.839Z,985.46
2017-02-12T01:16:38.485Z,985.48
2017-02-12T01:17:19.114Z,985.42
2017-02-12T01:17:59.867Z,985.45
2017-02-12T01:18:40.558Z,985.4
2017-02-12T01:19:21.200Z,985.44
2017-02-12T01:20:01.842Z,985.4
2017-02-12T01:20:42.500Z,985.35
2017-02-12T01:21:23.132Z,985.32
2017-02-12T01:22:03.763Z,985.32
2017-02-12T01:22:44.507Z,985.34
2017-02-12T01:23:25.221Z,985.32
2017-02-12T01:24:05.861Z,985.35
2017-02-12T01:24:46.496Z,985.28
2017-02-12T01:25:27.166Z,985.29
2017-02-12T01:26:07.799Z,985.25
2017-02-12T01:26:48.435Z,985.23
2017-02-12T01:27:29.213Z,985.18
2017-02-12T01:28:09.859Z,985.18
2017-02-12T01:28:50.493Z,985.12
2017-02-12T01:29:31.158Z,985.16
2017-02-12T01:30:11.798Z,985.1
2017-02-12T01:30:52.498Z,985.1
2017-02-12T01:31:33.137Z,985.1
2017-02-12T01:32:13.881Z,985.13
2017-02-12T01:32:54.642Z,985.11
2017-02-12T01:33:35.169Z,985.06
2017-02-12T01:34:15.821Z,985.12
2017-02-12T01:34:56.536Z,985.11
2017-02-12T01:35:37.197Z,985.09
2017-02-12T01:36:17.861Z,985.09
2017-02-12T01:36:58.592Z,985.06
2017-02-12T01:37:39.216Z,985.06
2017-02-12T01:38:19.842Z,985.08
2017-02-12T01:39:00.501Z,985.1
2017-02-12T01:39:41.143Z,985.02
2017-02-12T01:40:21.792Z,985.01
2017-02-12T01:41:02.421Z,984.99
2017-02-12T01:41:43.060Z,984.98
2017-02-12T01:42:23.717Z,985
2017-02-12T01:43:04.452Z,984.96
2017-02-12T01:43:45.074Z,984.97
2017-02-12T01:44:25.780Z,984.99
2017-02-12T01:45:06.485Z,984.95
2017-02-12T01:45:47.182Z,984.91
2017-02-12T01:46:27.834Z,984.9
2017-02-12T01:47:08.581Z,984.89
2017-02-12T01:47:49.246Z,984.92
2017-02-12T01:48:29.894Z,984.91
2017-02-12T01:49:10.600Z,984.9
2017-02-12T01:49:51.272Z,984.93
2017-02-12T01:50:31.933Z,984.91
2017-02-12T01:51:12.619Z,984.84
2017-02-12T01:51:53.263Z,984.86
2017-02-12T01:52:33.960Z,984.88
2017-02-12T01:53:14.608Z,984.84
2017-02-12T01:53:55.916Z,984.84
2017-02-12T01:54:36.558Z,984.85
2017-02-12T01:55:17.275Z,984.81
2017-02-12T01:55:57.966Z,984.82
2017-02-12T01:56:38.604Z,984.81
2017-02-12T01:57:19.305Z,984.81
2017-02-12T01:57:59.992Z,984.81
2017-02-12T01:58:40.695Z,984.77
2017-02-12T01:59:21.340Z,984.81
2017-02-12T02:00:02.089Z,984.8
2017-02-12T02:00:42.717Z,984.78
2017-02-12T02:01:23.350Z,984.8
2017-02-12T02:02:04.055Z,984.79
2017-02-12T02:02:44.724Z,984.83
2017-02-12T02:03:25.362Z,984.82
2017-02-12T02:04:06.530Z,984.81
2017-02-12T02:04:47.156Z,984.79
2017-02-12T02:05:27.865Z,984.78
2017-02-12T02:06:08.608Z,984.77
2017-02-12T02:06:49.237Z,984.74
2017-02-12T02:07:29.892Z,984.73
2017-02-12T02:08:10.565Z,984.72
2017-02-12T02:08:51.197Z,984.67
2017-02-12T02:09:31.833Z,984.64
2017-02-12T02:10:12.580Z,984.67
2017-02-12T02:10:53.302Z,984.65
2017-02-12T02:11:33.943Z,984.59
2017-02-12T02:12:14.680Z,984.58
2017-02-12T02:12:55.388Z,984.59
2017-02-12T02:13:36.121Z,984.6
2017-02-12T02:14:16.746Z,984.57
2017-02-12T02:14:57.408Z,984.62
2017-02-12T02:15:38.110Z,984.59
2017-02-12T02:16:18.766Z,984.54
2017-02-12T02:16:59.496Z,984.51
2017-02-12T02:17:40.168Z,984.49
2017-02-12T02:18:20.811Z,984.5
2017-02-12T02:19:01.526Z,984.56
2017-02-12T02:19:42.208Z,984.53
2017-02-12T02:20:22.914Z,984.49
2017-02-12T02:21:03.590Z,984.54
2017-02-12T02:21:44.287Z,984.49
2017-02-12T02:22:24.973Z,984.51
2017-02-12T02:23:05.625Z,984.49
2017-02-12T02:23:46.264Z,984.49
2017-02-12T02:24:26.888Z,984.49
2017-02-12T02:25:07.524Z,984.45
2017-02-12T02:25:48.230Z,984.44
2017-02-12T02:26:28.991Z,984.43
2017-02-12T02:27:09.715Z,984.42
2017-02-12T02:27:50.351Z,984.39
2017-02-12T02:28:31.022Z,984.38
2017-02-12T02:29:11.654Z,984.35
2017-02-12T02:29:52.285Z,984.42
2017-02-12T02:30:32.943Z,984.38
2017-02-12T02:31:13.580Z,984.36
2017-02-12T02:31:54.217Z,984.35
2017-02-12T02:32:34.871Z,984.3
2017-02-12T02:33:15.502Z,984.28
2017-02-12T02:33:56.135Z,984.33
2017-02-12T02:34:36.809Z,984.35
2017-02-12T02:35:17.470Z,984.31
2017-02-12T02:35:58.115Z,984.3
2017-02-12T02:36:38.791Z,984.31
2017-02-12T02:37:19.421Z,984.33
2017-02-12T02:38:00.070Z,984.25
2017-02-12T02:38:40.758Z,984.27
2017-02-12T02:39:21.483Z,984.22
2017-02-12T02:40:02.149Z,984.22
2017-02-12T02:40:42.791Z,984.18
2017-02-12T02:41:23.542Z,984.17
2017-02-12T02:42:04.262Z,984.14
2017-02-12T02:42:45.434Z,984.15
2017-02-12T02:43:25.609Z,984.11
2017-02-12T02:44:06.317Z,984.13
2017-02-12T02:44:46.945Z,984.07
2017-02-12T02:45:27.589Z,984.06
2017-02-12T02:46:08.261Z,984.06
2017-02-12T02:46:48.899Z,984.05
2017-02-12T02:47:29.525Z,984
2017-02-12T02:48:10.176Z,984.01
2017-02-12T02:48:50.816Z,983.99
2017-02-12T02:49:31.451Z,983.98
2017-02-12T02:50:12.156Z,983.95
2017-02-12T02:50:52.786Z,983.92
2017-02-12T02:51:33.428Z,983.9
2017-02-12T02:52:14.112Z,983.88
2017-02-12T02:52:54.838Z,983.84
2017-02-12T02:53:35.480Z,983.83
2017-02-12T02:54:16.140Z,983.79
2017-02-12T02:54:56.789Z,983.8
2017-02-12T02:55:37.484Z,983.75
2017-02-12T02:56:18.064Z,983.77
2017-02-12T02:56:58.686Z,983.71
2017-02-12T02:57:39.323Z,983.68
2017-02-12T02:58:19.987Z,983.73
2017-02-12T02:59:00.676Z,983.74
2017-02-12T02:59:41.343Z,983.77
2017-02-12T03:00:21.984Z,983.76
2017-02-12T03:01:02.686Z,983.76
2017-02-12T03:01:43.406Z,983.77
2017-02-12T03:02:24.038Z,983.71
2017-02-12T03:03:04.702Z,983.69
2017-02-12T03:03:45.478Z,983.69
2017-02-12T03:04:26.112Z,983.71
2017-02-12T03:05:06.732Z,983.69
2017-02-12T03:05:47.407Z,983.71
2017-02-12T03:06:28.031Z,983.74
2017-02-12T03:07:08.663Z,983.7
2017-02-12T03:07:49.391Z,983.65
2017-02-12T03:08:30.021Z,983.66
2017-02-12T03:09:10.662Z,983.62
2017-02-12T03:09:51.364Z,983.61
2017-02-12T03:10:31.989Z,983.68
2017-02-12T03:11:12.626Z,983.64
2017-02-12T03:11:53.288Z,983.63
2017-02-12T03:12:33.991Z,983.58
2017-02-12T03:13:14.630Z,983.61
2017-02-12T03:13:55.376Z,983.58
2017-02-12T03:14:36.045Z,983.6
2017-02-12T03:15:16.666Z,983.61
2017-02-12T03:15:57.320Z,983.59
2017-02-12T03:16:38.054Z,983.55
2017-02-12T03:17:18.751Z,983.59
2017-02-12T03:17:59.403Z,983.59
2017-02-12T03:18:40.165Z,983.59
2017-02-12T03:19:20.845Z,983.56
2017-02-12T03:20:01.481Z,983.57
2017-02-12T03:20:42.199Z,983.53
2017-02-12T03:21:22.888Z,983.58
2017-02-12T03:22:03.624Z,983.5
2017-02-12T03:22:44.249Z,983.49
2017-02-12T03:23:24.937Z,983.49
2017-02-12T03:24:05.688Z,983.48
2017-02-12T03:24:46.319Z,983.5
2017-02-12T03:25:27.000Z,983.47
2017-02-12T03:26:07.750Z,983.41
2017-02-12T03:26:48.396Z,983.43
2017-02-12T03:27:29.023Z,983.41
2017-02-12T03:28:09.732Z,983.38
2017-02-12T03:28:50.363Z,983.41
2017-02-12T03:29:30.987Z,983.44
2017-02-12T03:30:11.654Z,983.41
2017-02-12T03:30:52.303Z,983.38
2017-02-12T03:31:32.944Z,983.29
2017-02-12T03:32:13.629Z,983.31
2017-02-12T03:32:54.364Z,983.34
2017-02-12T03:33:35.012Z,983.26
2017-02-12T03:34:15.667Z,983.31
2017-02-12T03:34:56.429Z,983.33
2017-02-12T03:35:37.130Z,983.3
2017-02-12T03:36:17.769Z,983.31
2017-02-12T03:36:58.423Z,983.32
2017-02-12T03:37:39.057Z,983.25
2017-02-12T03:38:19.684Z,983.28
2017-02-12T03:39:00.342Z,983.31
2017-02-12T03:39:40.978Z,983.27
2017-02-12T03:40:21.607Z,983.28
2017-02-12T03:41:02.301Z,983.26
2017-02-12T03:41:42.939Z,983.27
2017-02-12T03:42:23.563Z,983.26
2017-02-12T03:43:04.202Z,983.28
2017-02-12T03:43:44.833Z,983.21
2017-02-12T03:44:25.457Z,983.18
2017-02-12T03:45:06.140Z,983.17
2017-02-12T03:45:46.763Z,983.18
2017-02-12T03:46:27.382Z,983.21
2017-02-12T03:47:08.061Z,983.13
2017-02-12T03:47:48.729Z,983.11
2017-02-12T03:48:29.360Z,983.09
2017-02-12T03:49:10.071Z,983.07
2017-02-12T03:49:50.731Z,983.05
2017-02-12T03:50:31.459Z,983.02
2017-02-12T03:51:12.023Z,983.09
2017-02-12T03:51:52.682Z,983.11
2017-02-12T03:52:33.355Z,983.11
2017-02-12T03:53:13.941Z,983.07
2017-02-12T03:53:54.580Z,983.07
2017-02-12T03:54:35.250Z,983.03
2017-02-12T03:55:15.869Z,983
2017-02-12T03:55:56.505Z,982.98
2017-02-12T03:56:37.175Z,983
2017-02-12T03:57:17.811Z,982.94
2017-02-12T03:57:58.444Z,982.95
2017-02-12T03:58:39.102Z,982.97
2017-02-12T03:59:19.763Z,982.94
2017-02-12T04:00:00.407Z,982.93
2017-02-12T04:00:41.132Z,982.92
2017-02-12T04:01:21.775Z,982.93
2017-02-12T04:02:02.524Z,982.87
2017-02-12T04:02:43.149Z,982.86
2017-02-12T04:03:23.770Z,982.85
2017-02-12T04:04:04.444Z,982.86
2017-02-12T04:04:45.157Z,982.88
2017-02-12T04:05:25.908Z,982.87
2017-02-12T04:06:06.462Z,982.79
2017-02-12T04:06:47.092Z,982.81
2017-02-12T04:07:27.798Z,982.81
2017-02-12T04:08:08.378Z,982.78
2017-02-12T04:08:49.152Z,982.75
2017-02-12T04:09:29.854Z,982.74
2017-02-12T04:10:10.480Z,982.73
2017-02-12T04:10:51.154Z,982.73
2017-02-12T04:11:32.761Z,982.75
2017-02-12T04:12:13.389Z,982.79
2017-02-12T04:12:54.154Z,982.73
2017-02-12T04:13:34.802Z,982.73
2017-02-12T04:14:15.431Z,982.75
2017-02-12T04:14:56.060Z,982.75
2017-02-12T04:15:36.689Z,982.69
2017-02-12T04:16:17.318Z,982.69
2017-02-12T04:16:57.999Z,982.69
2017-02-12T04:17:38.714Z,982.64
2017-02-12T04:18:19.443Z,982.63
2017-02-12T04:18:59.961Z,982.67
2017-02-12T04:19:40.705Z,982.63
2017-02-12T04:20:21.369Z,982.63
2017-02-12T04:21:01.990Z,982.66
2017-02-12T04:21:42.632Z,982.68
2017-02-12T04:22:23.293Z,982.69
2017-02-12T04:23:03.940Z,982.65
2017-02-12T04:23:44.644Z,982.63
2017-02-12T04:24:25.305Z,982.67
2017-02-12T04:25:05.936Z,982.64
2017-02-12T04:25:47.473Z,982.59
2017-02-12T04:26:28.162Z,982.57
2017-02-12T04:27:08.798Z,982.56
2017-02-12T04:27:49.534Z,982.58
2017-02-12T04:28:30.278Z,982.51
2017-02-12T04:29:10.976Z,982.52
2017-02-12T04:29:51.566Z,982.51
2017-02-12T04:30:32.179Z,982.52
2017-02-12T04:31:12.808Z,982.53
2017-02-12T04:31:53.489Z,982.53
2017-02-12T04:32:34.114Z,982.53
2017-02-12T04:33:14.837Z,982.5
2017-02-12T04:33:55.427Z,982.49
2017-02-12T04:34:36.111Z,982.5
2017-02-12T04:35:16.773Z,982.46
2017-02-12T04:35:57.394Z,982.48
2017-02-12T04:36:38.120Z,982.46
2017-02-12T04:37:18.736Z,982.4
2017-02-12T04:37:59.364Z,982.38
2017-02-12T04:38:39.993Z,982.42
2017-02-12T04:39:20.662Z,982.38
2017-02-12T04:40:01.306Z,982.4
2017-02-12T04:40:42.017Z,982.36
2017-02-12T04:41:22.675Z,982.36
2017-02-12T04:42:03.314Z,982.32
2017-02-12T04:42:43.978Z,982.33
2017-02-12T04:43:24.724Z,982.32
2017-02-12T04:44:05.367Z,982.32
2017-02-12T04:44:45.997Z,982.29
2017-02-12T04:45:26.751Z,982.33
2017-02-12T04:46:07.490Z,982.28
2017-02-12T04:46:48.127Z,982.32
2017-02-12T04:47:28.778Z,982.23
2017-02-12T04:48:09.512Z,982.24
2017-02-12T04:48:50.230Z,982.26
2017-02-12T04:49:30.804Z,982.22
2017-02-12T04:50:11.458Z,982.21
2017-02-12T04:50:52.109Z,982.24
2017-02-12T04:51:32.782Z,982.22
2017-02-12T04:52:13.510Z,982.25
2017-02-12T04:52:54.136Z,982.18
2017-02-12T04:53:34.775Z,982.21
2017-02-12T04:54:15.418Z,982.2
2017-02-12T04:54:56.059Z,982.21
2017-02-12T04:55:36.686Z,982.24
2017-02-12T04:56:17.364Z,982.18
2017-02-12T04:56:58.048Z,982.19
2017-02-12T04:57:38.687Z,982.1
2017-02-12T04:58:19.355Z,982.17
2017-02-12T04:59:00.116Z,982.16
2017-02-12T04:59:40.764Z,982.15
2017-02-12T05:00:21.459Z,982.09
2017-02-12T05:01:02.165Z,982.13
2017-02-12T05:01:42.798Z,982.17
2017-02-12T05:02:23.425Z,982.1
2017-02-12T05:03:04.079Z,982.1
2017-02-12T05:03:44.715Z,982.06
2017-02-12T05:04:25.346Z,982.11
2017-02-12T05:05:06.019Z,982.03
2017-02-12T05:05:46.648Z,982.06
2017-02-12T05:06:27.279Z,982.01
2017-02-12T05:07:07.943Z,982.02
2017-02-12T05:07:48.582Z,981.98
2017-02-12T05:08:29.215Z,981.99
2017-02-12T05:09:09.909Z,982.02
2017-02-12T05:09:50.547Z,981.97
2017-02-12T05:10:31.181Z,981.99
2017-02-12T05:11:11.812Z,981.96
2017-02-12T05:11:52.483Z,981.95
2017-02-12T05:12:33.109Z,981.96
2017-02-12T05:13:13.749Z,981.95
2017-02-12T05:13:54.384Z,981.94
2017-02-12T05:14:35.019Z,981.9
2017-02-12T05:15:15.671Z,981.9
2017-02-12T05:15:56.348Z,981.91
2017-02-12T05:16:36.985Z,981.9
2017-02-12T05:17:17.654Z,981.92
2017-02-12T05:17:58.406Z,981.91
2017-02-12T05:18:39.051Z,981.86
2017-02-12T05:19:19.667Z,981.9
2017-02-12T05:20:00.284Z,981.85
2017-02-12T05:20:40.911Z,981.85
2017-02-12T05:21:21.554Z,981.83
2017-02-12T05:22:02.183Z,981.87
2017-02-12T05:22:42.824Z,981.84
2017-02-12T05:23:23.485Z,981.91
2017-02-12T05:24:04.111Z,981.89
2017-02-12T05:24:44.732Z,981.87
2017-02-12T05:25:25.416Z,981.86
2017-02-12T05:26:06.092Z,981.81
2017-02-12T05:26:46.742Z,981.87
2017-02-12T05:27:27.382Z,981.82
2017-02-12T05:28:08.099Z,981.78
2017-02-12T05:28:48.731Z,981.73
2017-02-12T05:29:29.366Z,981.77
2017-02-12T05:30:09.994Z,981.82
2017-02-12T05:30:50.675Z,981.83
2017-02-12T05:31:31.294Z,981.75
2017-02-12T05:32:11.935Z,981.79
2017-02-12T05:32:52.582Z,981.78
2017-02-12T05:33:33.217Z,981.73
2017-02-12T05:34:13.847Z,981.78
2017-02-12T05:34:54.514Z,981.73
2017-02-12T05:35:35.158Z,981.75
2017-02-12T05:36:15.791Z,981.79
2017-02-12T05:36:56.437Z,981.73
2017-02-12T05:37:37.083Z,981.79
2017-02-12T05:38:17.712Z,981.75
2017-02-12T05:38:58.416Z,981.79
2017-02-12T05:39:39.060Z,981.8
2017-02-12T05:40:19.765Z,981.77
2017-02-12T05:41:00.419Z,981.77
2017-02-12T05:41:41.052Z,981.7
2017-02-12T05:42:21.723Z,981.71
2017-02-12T05:43:02.460Z,981.68
2017-02-12T05:43:43.116Z,981.69
2017-02-12T05:44:23.761Z,981.75
2017-02-12T05:45:04.511Z,981.7
2017-02-12T05:45:45.140Z,981.73
2017-02-12T05:46:25.794Z,981.71
2017-02-12T05:47:06.599Z,981.69
2017-02-12T05:47:47.362Z,981.73
2017-02-12T05:48:27.976Z,981.72
2017-02-12T05:49:08.607Z,981.66
2017-02-12T05:49:49.310Z,981.68
2017-02-12T05:50:30.006Z,981.64
2017-02-12T05:51:10.634Z,981.63
2017-02-12T05:51:51.274Z,981.66
2017-02-12T05:52:31.907Z,981.63
2017-02-12T05:53:12.529Z,981.65
2017-02-12T05:53:53.208Z,981.63
2017-02-12T05:54:33.892Z,981.61
2017-02-12T05:55:14.514Z,981.61
2017-02-12T05:55:55.185Z,981.59
2017-02-12T05:56:35.798Z,981.57
2017-02-12T05:57:16.422Z,981.58
2017-02-12T05:57:57.054Z,981.56
2017-02-12T05:58:37.684Z,981.51
2017-02-12T05:59:18.309Z,981.54
2017-02-12T05:59:59.074Z,981.52
2017-02-12T06:00:39.786Z,981.52
2017-02-12T06:01:20.425Z,981.5
2017-02-12T06:02:01.117Z,981.43
2017-02-12T06:02:41.748Z,981.49
2017-02-12T06:03:22.389Z,981.45
2017-02-12T06:04:03.001Z,981.45
2017-02-12T06:04:43.736Z,981.38
2017-02-12T06:05:24.359Z,981.35
2017-02-12T06:06:04.995Z,981.36
2017-02-12T06:06:45.680Z,981.35
2017-02-12T06:07:26.305Z,981.31
2017-02-12T06:08:06.935Z,981.32
2017-02-12T06:08:47.618Z,981.33
2017-02-12T06:09:28.258Z,981.32
2017-02-12T06:10:08.887Z,981.37
2017-02-12T06:10:49.541Z,981.36
2017-02-12T06:11:30.176Z,981.35
2017-02-12T06:12:10.811Z,981.34
2017-02-12T06:12:51.468Z,981.34
2017-02-12T06:13:32.108Z,981.34
2017-02-12T06:14:12.737Z,981.33
2017-02-12T06:14:53.398Z,981.35
2017-02-12T06:15:34.026Z,981.34
2017-02-12T06:16:14.654Z,981.34
2017-02-12T06:16:55.290Z,981.36
2017-02-12T06:17:35.946Z,981.39
2017-02-12T06:18:16.583Z,981.41
2017-02-12T06:18:57.214Z,981.44
2017-02-12T06:19:37.872Z,981.42
2017-02-12T06:20:18.558Z,981.4
2017-02-12T06:20:59.235Z,981.39
2017-02-12T06:21:39.878Z,981.36
2017-02-12T06:22:20.520Z,981.34
2017-02-12T06:23:01.166Z,981.33
2017-02-12T06:23:41.904Z,981.29
2017-02-12T06:24:22.532Z,981.27
2017-02-12T06:25:03.216Z,981.29
2017-02-12T06:25:43.971Z,981.28
2017-02-12T06:26:24.664Z,981.26
2017-02-12T06:27:05.296Z,981.29
2017-02-12T06:27:45.937Z,981.29
2017-02-12T06:28:26.623Z,981.3
2017-02-12T06:29:07.262Z,981.33
2017-02-12T06:29:47.930Z,981.31
2017-02-12T06:30:28.640Z,981.29
2017-02-12T06:31:09.273Z,981.32
2017-02-12T06:31:49.915Z,981.28
2017-02-12T06:32:30.612Z,981.3
2017-02-12T06:33:11.255Z,981.28
2017-02-12T06:33:51.886Z,981.31
2017-02-12T06:34:32.642Z,981.27
2017-02-12T06:35:13.277Z,981.22
2017-02-12T06:35:53.905Z,981.28
2017-02-12T06:36:34.561Z,981.26
2017-02-12T06:37:15.194Z,981.31
2017-02-12T06:37:55.827Z,981.28
2017-02-12T06:38:36.519Z,981.23
2017-02-12T06:39:17.155Z,981.23
2017-02-12T06:39:57.791Z,981.22
2017-02-12T06:40:38.452Z,981.21
2017-02-12T06:41:19.090Z,981.23
2017-02-12T06:41:59.728Z,981.23
2017-02-12T06:42:40.478Z,981.27
2017-02-12T06:43:21.157Z,981.26
2017-02-12T06:44:01.788Z,981.21
2017-02-12T06:44:42.422Z,981.19
2017-02-12T06:45:23.094Z,981.24
2017-02-12T06:46:03.725Z,981.26
2017-02-12T06:46:44.375Z,981.25
2017-02-12T06:47:25.047Z,981.25
2017-02-12T06:48:05.770Z,981.2
2017-02-12T06:48:46.314Z,981.2
2017-02-12T06:49:27.057Z,981.22
2017-02-12T06:50:07.694Z,981.25
2017-02-12T06:50:48.324Z,981.22
2017-02-12T06:51:28.988Z,981.28
2017-02-12T06:52:09.614Z,981.28
2017-02-12T06:52:50.249Z,981.25
2017-02-12T06:53:30.931Z,981.27
2017-02-12T06:54:11.557Z,981.3
2017-02-12T06:54:52.186Z,981.29
2017-02-12T06:55:32.844Z,981.28
2017-02-12T06:56:13.486Z,981.27
2017-02-12T06:56:54.111Z,981.27
2017-02-12T06:57:34.802Z,981.29
2017-02-12T06:58:15.434Z,981.27
2017-02-12T06:58:56.081Z,981.29
2017-02-12T06:59:36.745Z,981.25
2017-02-12T07:00:17.387Z,981.28
2017-02-12T07:00:58.008Z,981.26
2017-02-12T07:01:38.675Z,981.29
2017-02-12T07:02:19.313Z,981.25
2017-02-12T07:02:59.960Z,981.25
2017-02-12T07:03:40.660Z,981.26
2017-02-12T07:04:21.388Z,981.27
2017-02-12T07:05:02.012Z,981.22
2017-02-12T07:05:42.669Z,981.23
2017-02-12T07:06:23.412Z,981.23
2017-02-12T07:07:04.044Z,981.2
2017-02-12T07:07:44.689Z,981.24
2017-02-12T07:08:25.368Z,981.24
2017-02-12T07:09:05.994Z,981.27
2017-02-12T07:09:46.629Z,981.26
2017-02-12T07:10:27.301Z,981.28
2017-02-12T07:11:07.956Z,981.27
2017-02-12T07:11:48.575Z,981.27
2017-02-12T07:12:29.262Z,981.28
2017-02-12T07:13:09.895Z,981.25
2017-02-12T07:13:50.517Z,981.23
2017-02-12T07:14:31.172Z,981.2
2017-02-12T07:15:11.807Z,981.21
2017-02-12T07:15:52.431Z,981.22
2017-02-12T07:16:33.114Z,981.24
2017-02-12T07:17:13.741Z,981.25
2017-02-12T07:17:54.383Z,981.24
2017-02-12T07:18:35.011Z,981.2
2017-02-12T07:19:15.690Z,981.21
2017-02-12T07:19:56.322Z,981.21
2017-02-12T07:20:37.613Z,981.21
2017-02-12T07:21:18.241Z,981.21
2017-02-12T07:21:58.965Z,981.2
2017-02-12T07:22:39.680Z,981.16
2017-02-12T07:23:20.306Z,981.16
2017-02-12T07:24:00.957Z,981.19
2017-02-12T07:24:41.669Z,981.19
2017-02-12T07:25:22.363Z,981.18
2017-02-12T07:26:03.010Z,981.22
2017-02-12T07:26:43.641Z,981.21
2017-02-12T07:27:25.135Z,981.23
2017-02-12T07:28:05.848Z,981.22
2017-02-12T07:28:46.518Z,981.19
2017-02-12T07:29:27.223Z,981.2
2017-02-12T07:30:07.867Z,981.23
2017-02-12T07:30:48.505Z,981.22
2017-02-12T07:31:29.195Z,981.17
2017-02-12T07:32:09.822Z,981.19
2017-02-12T07:32:50.464Z,981.15
2017-02-12T07:33:31.131Z,981.17
2017-02-12T07:34:11.764Z,981.15
2017-02-12T07:34:52.491Z,981.19
2017-02-12T07:35:33.177Z,981.19
2017-02-12T07:36:13.809Z,981.17
2017-02-12T07:36:54.502Z,981.18
2017-02-12T07:37:35.234Z,981.21
2017-02-12T07:38:15.873Z,981.18
2017-02-12T07:38:56.525Z,981.22
2017-02-12T07:39:37.218Z,981.22
2017-02-12T07:40:17.854Z,981.23
2017-02-12T07:40:58.478Z,981.23
2017-02-12T07:41:39.209Z,981.25
2017-02-12T07:42:19.864Z,981.2
2017-02-12T07:43:00.524Z,981.24
2017-02-12T07:43:41.169Z,981.24
2017-02-12T07:44:21.827Z,981.26
2017-02-12T07:45:02.459Z,981.25
2017-02-12T07:45:43.152Z,981.27
2017-02-12T07:46:23.781Z,981.29
2017-02-12T07:47:04.417Z,981.28
2017-02-12T07:47:45.111Z,981.25
2017-02-12T07:48:25.814Z,981.27
2017-02-12T07:49:06.459Z,981.29
2017-02-12T07:49:47.113Z,981.24
2017-02-12T07:50:27.742Z,981.23
2017-02-12T07:51:08.376Z,981.25
2017-02-12T07:51:49.010Z,981.23
2017-02-12T07:52:29.703Z,981.2
2017-02-12T07:53:10.364Z,981.21
2017-02-12T07:53:50.988Z,981.21
2017-02-12T07:54:31.698Z,981.21
2017-02-12T07:55:12.347Z,981.2
2017-02-12T07:55:52.991Z,981.26
2017-02-12T07:56:33.684Z,981.28
2017-02-12T07:57:14.411Z,981.28
2017-02-12T07:57:55.123Z,981.26
2017-02-12T07:58:35.783Z,981.25
2017-02-12T07:59:16.473Z,981.27
2017-02-12T07:59:57.170Z,981.24
2017-02-12T08:00:37.821Z,981.22
2017-02-12T08:01:18.477Z,981.21
2017-02-12T08:01:59.213Z,981.27
2017-02-12T08:02:39.836Z,981.23
2017-02-12T08:03:20.491Z,981.23
2017-02-12T08:04:01.125Z,981.26
2017-02-12T08:04:41.747Z,981.27
2017-02-12T08:05:22.454Z,981.26
2017-02-12T08:06:03.180Z,981.23
2017-02-12T08:06:43.817Z,981.28
2017-02-12T08:07:24.442Z,981.28
2017-02-12T08:08:05.132Z,981.28
2017-02-12T08:08:45.762Z,981.3
2017-02-12T08:09:26.397Z,981.3
2017-02-12T08:10:07.066Z,981.31
2017-02-12T08:10:47.702Z,981.3
2017-02-12T08:11:28.327Z,981.3
2017-02-12T08:12:08.965Z,981.33
2017-02-12T08:12:49.651Z,981.33
2017-02-12T08:13:30.275Z,981.36
2017-02-12T08:14:10.941Z,981.39
2017-02-12T08:14:51.606Z,981.38
2017-02-12T08:15:32.230Z,981.36
2017-02-12T08:16:12.910Z,981.35
2017-02-12T08:16:53.659Z,981.3
2017-02-12T08:17:34.319Z,981.32
2017-02-12T08:18:15.017Z,981.39
2017-02-12T08:18:55.743Z,981.34
2017-02-12T08:19:36.370Z,981.35
2017-02-12T08:20:16.997Z,981.34
2017-02-12T08:20:57.670Z,981.34
2017-02-12T08:21:38.323Z,981.37
2017-02-12T08:22:18.971Z,981.38
2017-02-12T08:22:59.633Z,981.4
2017-02-12T08:23:40.371Z,981.41
2017-02-12T08:24:21.002Z,981.39
2017-02-12T08:25:01.667Z,981.39
2017-02-12T08:25:42.319Z,981.38
2017-02-12T08:26:22.946Z,981.36
2017-02-12T08:27:03.591Z,981.34
2017-02-12T08:27:44.253Z,981.41
2017-02-12T08:28:24.902Z,981.33
2017-02-12T08:29:05.533Z,981.33